createdAt,value
2022-11-15T00:00:09.027Z,95308.38
2022-11-15T00:01:09.909Z,95111.00
2022-11-15T00:02:06.791Z,95134.13
2022-11-15T00:03:03.558Z,95346.75
2022-11-15T00:04:00.323Z,95281.16
2022-11-15T00:04:57.126Z,94927.16
2022-11-15T00:05:54.064Z,95299.19
2022-11-15T00:06:50.882Z,95303.53
2022-11-15T00:07:55.721Z,95329.59
2022-11-15T00:08:53.044Z,95230.50
2022-11-15T00:09:49.815Z,95265.25
2022-11-15T00:10:56.768Z,95216.94
2022-11-15T00:11:53.606Z,95237.50
2022-11-15T00:12:50.364Z,95340.28
2022-11-15T00:13:47.035Z,95297.31
2022-11-15T00:14:43.735Z,95120.28
2022-11-15T00:15:42.293Z,95303.00
2022-11-15T00:16:38.981Z,95308.22
2022-11-15T00:17:36.881Z,95262.44
2022-11-15T00:18:33.646Z,95279.63
2022-11-15T00:19:30.382Z,95299.84
2022-11-15T00:20:27.119Z,95298.91
2022-11-15T00:21:23.857Z,95243.97
2022-11-15T00:22:20.843Z,95332.47
2022-11-15T00:23:17.600Z,95331.94
2022-11-15T00:24:14.336Z,95316.22
2022-11-15T00:25:11.046Z,95262.91
2022-11-15T00:26:11.944Z,95274.78
2022-11-15T00:27:08.738Z,95269.66
2022-11-15T00:28:05.472Z,95262.97
2022-11-15T00:29:02.262Z,95272.06
2022-11-15T00:29:58.978Z,95313.75
2022-11-15T00:31:02.028Z,95244.78
2022-11-15T00:31:58.914Z,95254.38
2022-11-15T00:32:56.334Z,95310.09
2022-11-15T00:33:53.055Z,95238.34
2022-11-15T00:34:49.785Z,95256.81
2022-11-15T00:35:46.609Z,95302.38
2022-11-15T00:36:43.360Z,95316.31
2022-11-15T00:37:40.209Z,95318.47
2022-11-15T00:38:39.350Z,95310.09
2022-11-15T00:39:36.082Z,95172.06
2022-11-15T00:40:33.471Z,95225.84
2022-11-15T00:41:30.166Z,95312.19
2022-11-15T00:42:26.951Z,95291.38
2022-11-15T00:43:23.637Z,95302.91
2022-11-15T00:44:20.403Z,95300.09
2022-11-15T00:45:17.309Z,95307.53
2022-11-15T00:46:14.040Z,95287.78
2022-11-15T00:47:10.728Z,95285.06
2022-11-15T00:48:08.160Z,95297.06
2022-11-15T00:49:04.937Z,95298.09
2022-11-15T00:50:01.696Z,95275.84
2022-11-15T00:50:58.932Z,95291.47
2022-11-15T00:51:55.657Z,95194.91
2022-11-15T00:52:52.593Z,95294.16
2022-11-15T00:53:49.277Z,95258.66
2022-11-15T00:54:46.097Z,95200.63
2022-11-15T00:55:42.917Z,95297.69
2022-11-15T00:56:39.643Z,95195.03
2022-11-15T00:57:36.543Z,95329.53
2022-11-15T00:58:33.429Z,95146.91
2022-11-15T00:59:30.149Z,95250.78
2022-11-15T01:00:26.898Z,95251.00
2022-11-15T01:01:23.719Z,95300.31
2022-11-15T01:02:20.632Z,95296.34
2022-11-15T01:03:17.420Z,95099.84
2022-11-15T01:04:15.235Z,95130.22
2022-11-15T01:05:11.998Z,95285.81
2022-11-15T01:06:10.010Z,95155.72
2022-11-15T01:07:06.939Z,95244.81
2022-11-15T01:08:03.819Z,95240.59
2022-11-15T01:09:00.589Z,95102.09
2022-11-15T01:09:57.349Z,95286.22
2022-11-15T01:10:54.064Z,95291.13
2022-11-15T01:11:50.829Z,95302.41
2022-11-15T01:12:47.795Z,95289.41
2022-11-15T01:13:44.523Z,95288.59
2022-11-15T01:14:41.280Z,95264.56
2022-11-15T01:15:41.902Z,95293.59
2022-11-15T01:16:38.634Z,95275.56
2022-11-15T01:17:35.354Z,95223.88
2022-11-15T01:18:32.068Z,95283.44
2022-11-15T01:19:28.821Z,95263.56
2022-11-15T01:20:25.594Z,95325.72
2022-11-15T01:21:22.476Z,95258.28
2022-11-15T01:22:19.384Z,95282.31
2022-11-15T01:23:16.146Z,95295.16
2022-11-15T01:24:14.088Z,95274.84
2022-11-15T01:25:10.808Z,95302.78
2022-11-15T01:26:10.685Z,95282.34
2022-11-15T01:27:07.740Z,95249.53
2022-11-15T01:28:04.591Z,95227.91
2022-11-15T01:29:01.450Z,95130.59
2022-11-15T01:29:58.189Z,95304.16
2022-11-15T01:30:54.905Z,95264.34
2022-11-15T01:31:53.534Z,95273.53
2022-11-15T01:32:50.325Z,95097.56
2022-11-15T01:33:48.560Z,95284.09
2022-11-15T01:34:45.558Z,95291.09
2022-11-15T01:35:42.263Z,95287.22
2022-11-15T01:36:38.997Z,95267.38
2022-11-15T01:37:35.853Z,95298.00
2022-11-15T01:38:32.623Z,95261.22
2022-11-15T01:39:29.336Z,95285.84
2022-11-15T01:40:26.190Z,95283.06
2022-11-15T01:41:26.700Z,95267.00
2022-11-15T01:42:23.445Z,95228.81
2022-11-15T01:43:24.712Z,95265.09
2022-11-15T01:44:40.857Z,95256.19
2022-11-15T01:45:37.765Z,95242.97
2022-11-15T01:46:39.592Z,95195.72
2022-11-15T01:47:41.593Z,95256.47
2022-11-15T01:48:38.385Z,95203.81
2022-11-15T01:49:40.752Z,95099.63
2022-11-15T01:50:37.573Z,95095.44
2022-11-15T01:51:34.742Z,95248.09
2022-11-15T01:52:36.722Z,95217.88
2022-11-15T01:53:38.267Z,95169.19
2022-11-15T01:54:35.480Z,95254.44
2022-11-15T01:55:33.545Z,95064.81
2022-11-15T01:56:37.053Z,95286.88
2022-11-15T01:57:34.149Z,95281.47
2022-11-15T01:58:31.422Z,95069.75
2022-11-15T01:59:29.151Z,95280.22
2022-11-15T02:00:25.872Z,95269.03
2022-11-15T02:01:26.803Z,95187.81
2022-11-15T02:02:23.703Z,95272.91
2022-11-15T02:03:27.375Z,95092.19
2022-11-15T02:04:28.797Z,95275.72
2022-11-15T02:05:26.070Z,95271.38
2022-11-15T02:06:23.577Z,95287.66
2022-11-15T02:07:23.382Z,95179.38
2022-11-15T02:08:22.890Z,95244.63
2022-11-15T02:09:20.123Z,95223.44
2022-11-15T02:10:21.336Z,95179.31
2022-11-15T02:11:18.204Z,95279.88
2022-11-15T02:12:22.306Z,95255.59
2022-11-15T02:13:19.153Z,95044.34
2022-11-15T02:14:20.295Z,95267.38
2022-11-15T02:15:17.642Z,95208.41
2022-11-15T02:16:39.085Z,95248.25
2022-11-15T02:17:54.443Z,95248.69
2022-11-15T02:19:10.115Z,95058.16
2022-11-15T02:20:27.188Z,95257.72
2022-11-15T02:21:54.641Z,95252.34
2022-11-15T02:23:29.902Z,95196.25
2022-11-15T02:24:45.291Z,95251.41
2022-11-15T02:26:00.561Z,95258.06
2022-11-15T02:27:18.308Z,95251.13
2022-11-15T02:28:59.718Z,95243.50
2022-11-15T02:30:05.216Z,95242.06
2022-11-15T02:31:52.774Z,95241.53
2022-11-15T02:33:15.603Z,95216.81
2022-11-15T02:34:18.503Z,95243.78
2022-11-15T02:35:46.788Z,95250.34
2022-11-15T02:36:51.404Z,95210.41
2022-11-15T02:37:57.914Z,95187.09
2022-11-15T02:39:13.469Z,95234.94
2022-11-15T02:40:29.281Z,95240.25
2022-11-15T02:41:39.573Z,95196.91
2022-11-15T02:43:27.623Z,95219.22
2022-11-15T02:44:46.057Z,95242.66
2022-11-15T02:45:52.826Z,95262.75
2022-11-15T02:47:13.584Z,95250.31
2022-11-15T02:48:13.113Z,95244.81
2022-11-15T02:49:12.752Z,95180.09
2022-11-15T02:50:13.912Z,95209.59
2022-11-15T02:51:12.658Z,95251.75
2022-11-15T02:52:09.455Z,95263.44
2022-11-15T02:53:06.258Z,95253.63
2022-11-15T02:54:03.002Z,95256.22
2022-11-15T02:55:01.637Z,95202.97
2022-11-15T02:55:59.109Z,95247.13
2022-11-15T02:57:12.017Z,95219.47
2022-11-15T02:58:33.939Z,95246.47
2022-11-15T02:59:30.556Z,95254.19
2022-11-15T03:00:46.309Z,95047.38
2022-11-15T03:01:52.179Z,95250.31
2022-11-15T03:03:06.868Z,95249.22
2022-11-15T03:04:56.063Z,95118.88
2022-11-15T03:06:09.190Z,95227.09
2022-11-15T03:07:17.173Z,95236.41
2022-11-15T03:08:29.106Z,95252.66
2022-11-15T03:10:02.716Z,95173.88
2022-11-15T03:11:02.292Z,95243.50
2022-11-15T03:12:12.816Z,95257.25
2022-11-15T03:13:30.373Z,95241.44
2022-11-15T03:14:48.868Z,95237.38
2022-11-15T03:16:00.260Z,95203.13
2022-11-15T03:17:21.868Z,95242.03
2022-11-15T03:18:39.771Z,95032.94
2022-11-15T03:19:42.128Z,95268.91
2022-11-15T03:20:39.494Z,95258.09
2022-11-15T03:21:41.289Z,95255.81
2022-11-15T03:22:43.465Z,95207.88
2022-11-15T03:23:42.643Z,95210.47
2022-11-15T03:24:40.341Z,95243.47
2022-11-15T03:25:43.949Z,95164.38
2022-11-15T03:26:44.416Z,95246.78
2022-11-15T03:27:49.403Z,95244.03
2022-11-15T03:28:58.140Z,95208.78
2022-11-15T03:30:02.676Z,95241.78
2022-11-15T03:31:24.600Z,95234.56
2022-11-15T03:32:29.051Z,95166.69
2022-11-15T03:33:28.710Z,95250.00
2022-11-15T03:34:56.776Z,95227.63
2022-11-15T03:35:55.792Z,95206.81
2022-11-15T03:36:53.829Z,95229.50
2022-11-15T03:37:56.159Z,95222.06
2022-11-15T03:39:00.788Z,95258.00
2022-11-15T03:39:57.674Z,95036.53
2022-11-15T03:41:05.037Z,95208.47
2022-11-15T03:42:13.990Z,95229.91
2022-11-15T03:43:23.939Z,95225.63
2022-11-15T03:44:33.494Z,95228.09
2022-11-15T03:45:41.477Z,95092.81
2022-11-15T03:47:02.978Z,94904.94
2022-11-15T03:48:28.056Z,95156.91
2022-11-15T03:49:35.218Z,95250.16
2022-11-15T03:50:33.313Z,95263.69
2022-11-15T03:51:31.012Z,95151.97
2022-11-15T03:52:34.779Z,95236.31
2022-11-15T03:53:33.006Z,95043.59
2022-11-15T03:54:29.914Z,95265.97
2022-11-15T03:55:26.674Z,95048.84
2022-11-15T03:56:23.426Z,95186.50
2022-11-15T03:57:20.616Z,95164.97
2022-11-15T03:58:17.404Z,95041.38
2022-11-15T03:59:14.088Z,95237.06
2022-11-15T04:00:12.083Z,95223.81
2022-11-15T04:01:08.906Z,95172.47
2022-11-15T04:02:05.704Z,95228.53
2022-11-15T04:03:02.535Z,95175.56
2022-11-15T04:03:59.192Z,95085.91
2022-11-15T04:04:55.921Z,95163.06
2022-11-15T04:05:52.784Z,95238.16
2022-11-15T04:06:49.503Z,95230.06
2022-11-15T04:07:46.406Z,95113.31
2022-11-15T04:08:43.490Z,95228.72
2022-11-15T04:10:00.176Z,95241.28
2022-11-15T04:10:56.931Z,95030.03
2022-11-15T04:11:53.649Z,95219.88
2022-11-15T04:12:50.434Z,95001.06
2022-11-15T04:13:47.120Z,95025.78
2022-11-15T04:15:03.762Z,94900.78
2022-11-15T04:16:00.504Z,95177.66
2022-11-15T04:16:57.268Z,95192.38
2022-11-15T04:17:55.944Z,95241.75
2022-11-15T04:19:12.622Z,95202.38
2022-11-15T04:20:37.724Z,95224.59
2022-11-15T04:21:53.188Z,95235.56
2022-11-15T04:23:08.654Z,95227.53
2022-11-15T04:24:05.641Z,95206.19
2022-11-15T04:25:02.410Z,95125.28
2022-11-15T04:26:03.880Z,95198.16
2022-11-15T04:27:01.405Z,95151.50
2022-11-15T04:27:58.156Z,95213.38
2022-11-15T04:29:13.304Z,95205.81
2022-11-15T04:30:10.375Z,95027.84
2022-11-15T04:31:07.079Z,95186.16
2022-11-15T04:32:06.812Z,95212.94
2022-11-15T04:33:04.265Z,95209.69
2022-11-15T04:34:00.993Z,95184.09
2022-11-15T04:34:57.718Z,95190.84
2022-11-15T04:36:12.973Z,95142.41
2022-11-15T04:37:17.084Z,95155.75
2022-11-15T04:38:13.821Z,95100.31
2022-11-15T04:39:10.735Z,95126.78
2022-11-15T04:40:08.371Z,95241.13
2022-11-15T04:41:05.474Z,95169.97
2022-11-15T04:42:02.245Z,95178.59
2022-11-15T04:43:03.613Z,95223.53
2022-11-15T04:44:00.939Z,95185.50
2022-11-15T04:44:57.646Z,95077.28
2022-11-15T04:45:54.381Z,95234.03
2022-11-15T04:46:51.111Z,95225.63
2022-11-15T04:47:48.640Z,95217.63
2022-11-15T04:48:45.354Z,95011.38
2022-11-15T04:49:42.220Z,95227.94
2022-11-15T04:50:38.977Z,95037.44
2022-11-15T04:51:35.728Z,95225.34
2022-11-15T04:52:32.486Z,95253.00
2022-11-15T04:53:29.490Z,94997.81
2022-11-15T04:54:26.672Z,95235.44
2022-11-15T04:55:23.369Z,95214.22
2022-11-15T04:56:20.271Z,95187.91
2022-11-15T04:57:17.041Z,95211.50
2022-11-15T04:58:13.967Z,95215.72
2022-11-15T04:59:10.690Z,95030.50
2022-11-15T05:00:10.867Z,95220.50
2022-11-15T05:01:15.463Z,95228.50
2022-11-15T05:02:12.273Z,95226.31
2022-11-15T05:03:28.953Z,95218.31
2022-11-15T05:04:25.806Z,95204.41
2022-11-15T05:05:24.425Z,95177.41
2022-11-15T05:06:21.477Z,95181.63
2022-11-15T05:07:18.280Z,95199.91
2022-11-15T05:08:15.096Z,95252.53
2022-11-15T05:09:13.997Z,95233.66
2022-11-15T05:10:10.773Z,95230.47
2022-11-15T05:11:07.593Z,95168.34
2022-11-15T05:12:04.417Z,95211.16
2022-11-15T05:13:01.161Z,95178.88
2022-11-15T05:13:57.981Z,95071.78
2022-11-15T05:14:54.734Z,95239.34
2022-11-15T05:15:51.521Z,95194.63
2022-11-15T05:16:48.225Z,95122.22
2022-11-15T05:17:45.015Z,95010.28
2022-11-15T05:18:41.854Z,95227.81
2022-11-15T05:19:39.494Z,95155.09
2022-11-15T05:20:36.424Z,95226.31
2022-11-15T05:21:34.653Z,95127.69
2022-11-15T05:22:31.424Z,95231.19
2022-11-15T05:23:28.272Z,95198.06
2022-11-15T05:24:25.085Z,95230.56
2022-11-15T05:25:22.757Z,95204.53
2022-11-15T05:26:20.057Z,95199.31
2022-11-15T05:27:16.858Z,95235.19
2022-11-15T05:28:14.325Z,95161.31
2022-11-15T05:29:12.153Z,95197.88
2022-11-15T05:30:09.366Z,95195.47
2022-11-15T05:31:09.099Z,95224.78
2022-11-15T05:32:09.399Z,95225.00
2022-11-15T05:33:06.093Z,95037.56
2022-11-15T05:34:06.455Z,95066.00
2022-11-15T05:35:06.452Z,95143.47
2022-11-15T05:36:32.313Z,95196.25
2022-11-15T05:37:30.728Z,95190.16
2022-11-15T05:38:27.606Z,95217.66
2022-11-15T05:39:24.444Z,95187.38
2022-11-15T05:40:21.331Z,95229.69
2022-11-15T05:41:30.919Z,95217.47
2022-11-15T05:42:29.104Z,95198.47
2022-11-15T05:43:26.061Z,95158.41
2022-11-15T05:44:24.542Z,95215.94
2022-11-15T05:45:26.493Z,95041.41
2022-11-15T05:46:23.895Z,95170.22
2022-11-15T05:47:26.187Z,94880.81
2022-11-15T05:48:22.976Z,95163.38
2022-11-15T05:49:28.155Z,95175.09
2022-11-15T05:50:27.578Z,95230.28
2022-11-15T05:51:24.794Z,95233.00
2022-11-15T05:52:28.668Z,95210.41
2022-11-15T05:53:27.294Z,95241.13
2022-11-15T05:54:26.357Z,95215.19
2022-11-15T05:55:23.631Z,94869.31
2022-11-15T05:56:20.678Z,95007.78
2022-11-15T05:57:18.321Z,95103.53
2022-11-15T05:58:15.181Z,95231.38
2022-11-15T05:59:12.686Z,95057.44
2022-11-15T06:00:11.567Z,95226.97
2022-11-15T06:01:08.723Z,95181.16
2022-11-15T06:02:05.497Z,95257.97
2022-11-15T06:03:02.245Z,95179.72
2022-11-15T06:03:58.951Z,95219.91
2022-11-15T06:04:55.683Z,95220.94
2022-11-15T06:05:52.415Z,95035.25
2022-11-15T06:06:52.334Z,95224.75
2022-11-15T06:07:49.172Z,95228.94
2022-11-15T06:08:46.121Z,95226.91
2022-11-15T06:09:42.862Z,95160.84
2022-11-15T06:10:42.410Z,95220.81
2022-11-15T06:11:42.339Z,95161.00
2022-11-15T06:12:39.069Z,95151.09
2022-11-15T06:13:35.955Z,94764.72
2022-11-15T06:14:35.820Z,95201.56
2022-11-15T06:15:35.642Z,95227.38
2022-11-15T06:16:32.410Z,95248.97
2022-11-15T06:17:32.099Z,95227.81
2022-11-15T06:18:28.855Z,95168.06
2022-11-15T06:19:28.416Z,95273.63
2022-11-15T06:20:30.134Z,95141.59
2022-11-15T06:21:29.065Z,95242.91
2022-11-15T06:22:26.006Z,94987.84
2022-11-15T06:23:22.771Z,94966.59
2022-11-15T06:24:22.710Z,95172.94
2022-11-15T06:25:22.090Z,95121.72
2022-11-15T06:26:18.993Z,95257.56
2022-11-15T06:27:16.466Z,95180.53
2022-11-15T06:28:15.159Z,95219.09
2022-11-15T06:29:11.875Z,95089.31
2022-11-15T06:30:11.876Z,95222.69
2022-11-15T06:31:17.937Z,95080.56
2022-11-15T06:32:14.811Z,95239.06
2022-11-15T06:33:11.668Z,95220.38
2022-11-15T06:34:08.498Z,95232.91
2022-11-15T06:35:08.579Z,95005.63
2022-11-15T06:36:10.888Z,95213.09
2022-11-15T06:37:14.362Z,95203.44
2022-11-15T06:38:14.571Z,95195.28
2022-11-15T06:39:13.696Z,95153.00
2022-11-15T06:40:13.562Z,95037.97
2022-11-15T06:41:14.479Z,95129.75
2022-11-15T06:42:11.248Z,95212.72
2022-11-15T06:43:08.729Z,95023.56
2022-11-15T06:44:07.800Z,95069.72
2022-11-15T06:45:08.009Z,95105.84
2022-11-15T06:46:06.552Z,95228.22
2022-11-15T06:47:06.797Z,95241.56
2022-11-15T06:48:03.750Z,95179.41
2022-11-15T06:49:08.346Z,95088.41
2022-11-15T06:50:09.886Z,94795.09
2022-11-15T06:51:11.976Z,95164.91
2022-11-15T06:52:12.027Z,95128.38
2022-11-15T06:53:08.774Z,95095.78
2022-11-15T06:54:05.600Z,95163.19
2022-11-15T06:55:05.039Z,95026.41
2022-11-15T06:56:07.309Z,94887.34
2022-11-15T06:57:09.547Z,95003.78
2022-11-15T06:58:11.337Z,95235.50
2022-11-15T06:59:10.283Z,95237.66
2022-11-15T07:00:13.896Z,95240.00
2022-11-15T07:01:18.768Z,95010.00
2022-11-15T07:02:15.612Z,95208.25
2022-11-15T07:03:12.701Z,95227.63
2022-11-15T07:04:09.613Z,95218.72
2022-11-15T07:05:06.891Z,95236.78
2022-11-15T07:06:07.375Z,95103.00
2022-11-15T07:07:04.735Z,95207.97
2022-11-15T07:08:02.164Z,95208.69
2022-11-15T07:08:58.895Z,95234.47
2022-11-15T07:09:55.620Z,95041.66
2022-11-15T07:10:52.581Z,95179.44
2022-11-15T07:11:49.282Z,95185.28
2022-11-15T07:12:49.862Z,95210.16
2022-11-15T07:13:46.696Z,95042.63
2022-11-15T07:14:43.452Z,95232.19
2022-11-15T07:15:40.262Z,95045.97
2022-11-15T07:16:38.463Z,95205.28
2022-11-15T07:17:35.201Z,95212.69
2022-11-15T07:18:32.014Z,95166.19
2022-11-15T07:19:28.783Z,95232.94
2022-11-15T07:20:25.507Z,95231.22
2022-11-15T07:21:26.317Z,95212.47
2022-11-15T07:22:24.342Z,95254.56
2022-11-15T07:23:21.065Z,95166.69
2022-11-15T07:24:17.801Z,95225.19
2022-11-15T07:25:14.845Z,95037.69
2022-11-15T07:26:11.756Z,95238.78
2022-11-15T07:27:08.616Z,95169.75
2022-11-15T07:28:06.063Z,95213.56
2022-11-15T07:29:03.318Z,95228.78
2022-11-15T07:30:00.113Z,95138.91
2022-11-15T07:30:57.012Z,95011.53
2022-11-15T07:31:53.911Z,95199.41
2022-11-15T07:33:01.712Z,95227.88
2022-11-15T07:33:58.441Z,94932.50
2022-11-15T07:34:55.179Z,95076.72
2022-11-15T07:35:51.981Z,95157.13
2022-11-15T07:36:48.744Z,95175.44
2022-11-15T07:37:45.525Z,95205.16
2022-11-15T07:38:43.187Z,95060.16
2022-11-15T07:39:40.151Z,95229.59
2022-11-15T07:40:36.953Z,95245.78
2022-11-15T07:41:33.712Z,95104.63
2022-11-15T07:42:51.179Z,95126.06
2022-11-15T07:43:48.075Z,94974.13
2022-11-15T07:44:44.884Z,95168.53
2022-11-15T07:45:46.286Z,95144.75
2022-11-15T07:46:43.087Z,95217.09
2022-11-15T07:47:39.908Z,95160.06
2022-11-15T07:48:45.374Z,95083.81
2022-11-15T07:49:42.458Z,95038.81
2022-11-15T07:50:43.217Z,95159.81
2022-11-15T07:51:39.979Z,95198.44
2022-11-15T07:52:36.800Z,95218.78
2022-11-15T07:53:34.181Z,95223.41
2022-11-15T07:54:31.152Z,95208.50
2022-11-15T07:55:30.669Z,95154.66
2022-11-15T07:56:27.514Z,95231.53
2022-11-15T07:57:24.277Z,95019.59
2022-11-15T07:58:20.994Z,95181.13
2022-11-15T07:59:17.774Z,95169.72
2022-11-15T08:00:15.566Z,95229.44
2022-11-15T08:01:12.522Z,95230.22
2022-11-15T08:02:10.896Z,95215.25
2022-11-15T08:03:17.080Z,95128.09
2022-11-15T08:04:13.941Z,95242.69
2022-11-15T08:05:10.658Z,95027.25
2022-11-15T08:06:07.474Z,95209.06
2022-11-15T08:07:04.208Z,95131.66
2022-11-15T08:08:00.965Z,95232.13
2022-11-15T08:08:57.757Z,95070.53
2022-11-15T08:09:55.659Z,95205.28
2022-11-15T08:10:53.328Z,95205.56
2022-11-15T08:11:50.035Z,95056.84
2022-11-15T08:12:46.842Z,95202.03
2022-11-15T08:13:43.610Z,95134.38
2022-11-15T08:14:40.305Z,95218.09
2022-11-15T08:15:38.045Z,95125.25
2022-11-15T08:16:34.742Z,95210.06
2022-11-15T08:17:33.817Z,95232.56
2022-11-15T08:18:30.635Z,95022.81
2022-11-15T08:19:27.441Z,94566.50
2022-11-15T08:20:25.835Z,95195.56
2022-11-15T08:21:23.472Z,95179.44
2022-11-15T08:22:20.623Z,95214.97
2022-11-15T08:23:17.338Z,94970.63
2022-11-15T08:24:14.374Z,95195.44
2022-11-15T08:25:11.156Z,95189.13
2022-11-15T08:26:07.946Z,95191.31
2022-11-15T08:27:04.784Z,95153.28
2022-11-15T08:28:05.483Z,95176.94
2022-11-15T08:29:02.282Z,95213.53
2022-11-15T08:29:59.692Z,95160.69
2022-11-15T08:30:56.503Z,95209.16
2022-11-15T08:31:56.054Z,95156.91
2022-11-15T08:32:54.337Z,95213.38
2022-11-15T08:33:51.148Z,95160.56
2022-11-15T08:34:47.842Z,95012.97
2022-11-15T08:35:45.815Z,95171.03
2022-11-15T08:36:45.939Z,95189.66
2022-11-15T08:37:43.063Z,95184.78
2022-11-15T08:38:39.805Z,95184.22
2022-11-15T08:39:36.545Z,95148.47
2022-11-15T08:40:33.371Z,95193.69
2022-11-15T08:41:36.864Z,95122.88
2022-11-15T08:42:34.319Z,95153.09
2022-11-15T08:43:31.995Z,95090.97
2022-11-15T08:44:28.933Z,95203.00
2022-11-15T08:45:25.644Z,95213.97
2022-11-15T08:46:22.422Z,95123.22
2022-11-15T08:47:19.196Z,95160.50
2022-11-15T08:48:15.897Z,95109.66
2022-11-15T08:49:12.664Z,95119.94
2022-11-15T08:50:09.735Z,95156.63
2022-11-15T08:51:07.115Z,95150.44
2022-11-15T08:52:04.318Z,95155.94
2022-11-15T08:53:09.553Z,95191.94
2022-11-15T08:54:06.355Z,95014.59
2022-11-15T08:55:03.467Z,95193.97
2022-11-15T08:56:00.358Z,95130.94
2022-11-15T08:56:57.082Z,95183.00
2022-11-15T08:57:53.874Z,94986.34
2022-11-15T08:58:50.720Z,95176.88
2022-11-15T08:59:47.548Z,95178.72
2022-11-15T09:00:44.409Z,95190.38
2022-11-15T09:01:41.187Z,95184.72
2022-11-15T09:02:41.732Z,95024.00
2022-11-15T09:03:41.324Z,95028.50
2022-11-15T09:04:38.152Z,95143.22
2022-11-15T09:05:37.920Z,95084.41
2022-11-15T09:06:34.765Z,95172.88
2022-11-15T09:07:37.483Z,95173.63
2022-11-15T09:08:47.602Z,95157.03
2022-11-15T09:09:45.357Z,95135.25
2022-11-15T09:10:42.163Z,95131.25
2022-11-15T09:11:38.927Z,94984.50
2022-11-15T09:12:36.255Z,94957.75
2022-11-15T09:13:33.276Z,95151.53
2022-11-15T09:14:30.301Z,95154.78
2022-11-15T09:15:27.220Z,94918.44
2022-11-15T09:16:24.087Z,95157.94
2022-11-15T09:17:24.647Z,95013.91
2022-11-15T09:18:23.413Z,95167.94
2022-11-15T09:19:20.328Z,95002.00
2022-11-15T09:20:17.366Z,95175.75
2022-11-15T09:21:14.901Z,95158.03
2022-11-15T09:22:11.816Z,94700.91
2022-11-15T09:23:08.791Z,95111.28
2022-11-15T09:24:05.876Z,95147.47
2022-11-15T09:25:03.809Z,94908.47
2022-11-15T09:26:04.363Z,95114.19
2022-11-15T09:29:41.422Z,95147.31
2022-11-15T09:30:38.156Z,95139.06
2022-11-15T09:31:35.091Z,95065.38
2022-11-15T09:32:37.876Z,95035.38
2022-11-15T09:33:36.985Z,95163.31
2022-11-15T09:34:33.812Z,95109.59
2022-11-15T09:35:30.600Z,95093.22
2022-11-15T09:36:27.550Z,94934.22
2022-11-15T09:37:24.373Z,95114.25
2022-11-15T09:38:21.652Z,95003.31
2022-11-15T09:39:18.368Z,95129.34
2022-11-15T09:40:18.521Z,95151.41
2022-11-15T09:41:15.558Z,95114.94
2022-11-15T09:42:43.097Z,95122.94
2022-11-15T09:44:26.502Z,95133.69
2022-11-15T09:45:37.552Z,95014.28
2022-11-15T09:47:18.511Z,95107.75
2022-11-15T09:48:49.450Z,95102.06
2022-11-15T09:49:51.642Z,95060.72
2022-11-15T09:50:54.411Z,95032.56
2022-11-15T09:51:54.953Z,95142.44
2022-11-15T09:52:51.693Z,94926.78
2022-11-15T09:55:22.379Z,95060.91
2022-11-15T09:56:23.591Z,94967.03
2022-11-15T09:57:38.098Z,95048.03
2022-11-15T09:59:02.212Z,94954.72
2022-11-15T10:02:09.592Z,94971.91
2022-11-15T10:03:28.235Z,95128.03
2022-11-15T10:04:26.914Z,95092.44
2022-11-15T10:05:26.502Z,94918.63
2022-11-15T10:06:27.142Z,95046.28
2022-11-15T10:08:01.929Z,94998.34
2022-11-15T10:09:12.291Z,95142.66
2022-11-15T10:10:41.239Z,95017.47
2022-11-15T10:11:53.906Z,95032.09
2022-11-15T10:12:59.930Z,95080.09
2022-11-15T10:14:03.027Z,95085.47
2022-11-15T10:15:06.427Z,95118.84
2022-11-15T10:16:27.796Z,94963.44
2022-11-15T10:17:35.460Z,95070.03
2022-11-15T10:19:12.706Z,95074.06
2022-11-15T10:20:32.957Z,95066.38
2022-11-15T10:21:53.338Z,94845.09
2022-11-15T10:23:15.361Z,94814.63
2022-11-15T10:24:20.931Z,95066.72
2022-11-15T10:25:31.123Z,94701.25
2022-11-15T10:26:29.289Z,95089.81
2022-11-15T10:27:31.850Z,94898.00
2022-11-15T10:28:37.524Z,94741.56
2022-11-15T10:29:36.784Z,94918.25
2022-11-15T10:31:03.600Z,95046.16
2022-11-15T10:32:00.575Z,94988.16
2022-11-15T10:32:57.293Z,95049.34
2022-11-15T10:34:14.295Z,94954.06
2022-11-15T10:35:33.506Z,94994.66
2022-11-15T10:36:32.669Z,94915.41
2022-11-15T10:37:34.579Z,94965.81
2022-11-15T10:38:34.528Z,94981.03
2022-11-15T10:42:29.195Z,95036.00
2022-11-15T10:43:27.221Z,94908.03
2022-11-15T10:44:25.821Z,95020.97
2022-11-15T10:45:27.964Z,95023.53
2022-11-15T10:46:45.586Z,94984.06
2022-11-15T10:47:48.332Z,94873.94
2022-11-15T10:48:51.528Z,95044.78
2022-11-15T10:50:33.981Z,95013.44
2022-11-15T10:51:30.990Z,95025.47
2022-11-15T10:52:31.874Z,94955.06
2022-11-15T10:53:36.384Z,95013.88
2022-11-15T10:54:44.158Z,94946.06
2022-11-15T10:55:42.285Z,94987.84
2022-11-15T10:56:42.092Z,95034.88
2022-11-15T10:57:55.261Z,94972.31
2022-11-15T10:58:58.628Z,95042.13
2022-11-15T11:00:02.848Z,95008.13
2022-11-15T11:01:28.975Z,95006.84
2022-11-15T11:02:45.072Z,94965.84
2022-11-15T11:03:44.490Z,94973.97
2022-11-15T11:04:59.365Z,95020.03
2022-11-15T11:06:15.335Z,94958.50
2022-11-15T11:07:24.438Z,95014.63
2022-11-15T11:08:25.902Z,94964.81
2022-11-15T11:09:32.657Z,94994.06
2022-11-15T11:11:53.419Z,94995.31
2022-11-15T11:12:50.180Z,94990.91
2022-11-15T11:13:54.996Z,94970.50
2022-11-15T11:15:14.115Z,94977.34
2022-11-15T11:16:15.412Z,94978.38
2022-11-15T11:17:36.298Z,94950.94
2022-11-15T11:18:47.413Z,94977.16
2022-11-15T11:20:15.309Z,94940.84
2022-11-15T11:21:24.486Z,94801.84
2022-11-15T11:22:47.788Z,94975.91
2022-11-15T11:24:19.833Z,94912.19
2022-11-15T11:25:16.595Z,94604.84
2022-11-15T11:27:01.378Z,94962.97
2022-11-15T11:28:01.064Z,94967.81
2022-11-15T11:29:34.552Z,94957.56
2022-11-15T11:30:42.553Z,94958.19
2022-11-15T11:32:18.809Z,94962.78
2022-11-15T11:33:48.564Z,94952.34
2022-11-15T11:35:05.657Z,94951.22
2022-11-15T11:36:24.108Z,94943.59
2022-11-15T11:37:39.272Z,94915.25
2022-11-15T11:38:57.305Z,94924.06
2022-11-15T11:40:19.648Z,94591.69
2022-11-15T11:41:39.918Z,94933.03
2022-11-15T11:43:03.062Z,94924.81
2022-11-15T11:44:29.068Z,94925.13
2022-11-15T11:45:47.471Z,94921.63
2022-11-15T11:46:56.183Z,94901.28
2022-11-15T11:48:10.261Z,94920.25
2022-11-15T11:49:14.140Z,94937.66
2022-11-15T11:50:29.636Z,94681.91
2022-11-15T11:51:45.301Z,94649.34
2022-11-15T11:53:04.527Z,94958.19
2022-11-15T11:54:49.963Z,94915.31
2022-11-15T11:56:04.789Z,94763.66
2022-11-15T11:57:26.398Z,94892.47
2022-11-15T11:58:29.076Z,94908.81
2022-11-15T12:00:21.947Z,94927.28
2022-11-15T12:01:50.164Z,94826.50
2022-11-15T12:03:31.110Z,94532.88
2022-11-15T12:04:39.588Z,94903.22
2022-11-15T12:05:40.495Z,94912.56
2022-11-15T12:07:03.227Z,94897.19
2022-11-15T12:08:16.436Z,94902.53
2022-11-15T12:09:18.883Z,94888.63
2022-11-15T12:10:30.981Z,94838.53
2022-11-15T12:11:42.903Z,94882.84
2022-11-15T12:12:50.326Z,94839.69
2022-11-15T12:13:51.669Z,94771.31
2022-11-15T12:15:22.108Z,94896.44
2022-11-15T12:16:28.976Z,94883.34
2022-11-15T12:17:33.006Z,94898.22
2022-11-15T12:18:30.822Z,94872.03
2022-11-15T12:19:30.695Z,94692.84
2022-11-15T12:20:37.011Z,94733.34
2022-11-15T12:21:59.705Z,94868.91
2022-11-15T12:23:20.936Z,94877.69
2022-11-15T12:24:56.793Z,94805.44